sensor_id;sensor_type;location;lat;lon;timestamp;P1;durP1;ratioP1;P2;durP2;ratioP2
40152;SDS011;26371;56.992;23.912;2023-09-19T06:23:00;22.30;;;18.35;;
40152;SDS011;26371;56.992;23.912;2023-09-19T06:25:30;23.02;;;17.15;;
40152;SDS011;26371;56.992;23.912;2023-09-19T06:27:59;20.45;;;15.30;;
40152;SDS011;26371;56.992;23.912;2023-09-19T06:30:31;19.65;;;15.05;;
40152;SDS011;26371;56.992;23.912;2023-09-19T06:33:01;21.90;;;17.27;;
40152;SDS011;26371;56.992;23.912;2023-09-19T06:38:03;19.75;;;16.23;;
40152;SDS011;26371;56.992;23.912;2023-09-19T06:40:33;23.83;;;16.52;;
40152;SDS011;26371;56.992;23.912;2023-09-19T06:43:02;18.73;;;15.18;;
40152;SDS011;26371;56.992;23.912;2023-09-19T06:45:32;19.05;;;15.60;;
40152;SDS011;26371;56.992;23.912;2023-09-19T06:48:01;21.30;;;15.75;;
40152;SDS011;26371;56.992;23.912;2023-09-19T06:50:30;20.20;;;16.80;;
40152;SDS011;26371;56.992;23.912;2023-09-19T06:53:03;22.08;;;16.33;;
40152;SDS011;26371;56.992;23.912;2023-09-19T06:55:32;21.85;;;16.35;;
40152;SDS011;26371;56.992;23.912;2023-09-19T06:58:01;25.40;;;16.73;;
40152;SDS011;26371;56.992;23.912;2023-09-19T07:00:30;22.88;;;16.30;;
40152;SDS011;26371;56.992;23.912;2023-09-19T07:03:03;19.23;;;15.77;;
40152;SDS011;26371;56.992;23.912;2023-09-19T07:05:37;19.73;;;16.17;;
40152;SDS011;26371;56.992;23.912;2023-09-19T07:08:09;19.10;;;15.88;;
40152;SDS011;26371;56.992;23.912;2023-09-19T07:10:39;21.50;;;15.55;;
40152;SDS011;26371;56.992;23.912;2023-09-19T07:13:15;19.08;;;16.23;;
40152;SDS011;26371;56.992;23.912;2023-09-19T07:15:44;22.20;;;14.85;;
40152;SDS011;26371;56.992;23.912;2023-09-19T07:18:17;23.65;;;16.02;;
40152;SDS011;26371;56.992;23.912;2023-09-19T07:20:47;25.90;;;15.55;;
40152;SDS011;26371;56.992;23.912;2023-09-19T07:23:20;21.45;;;15.30;;
40152;SDS011;26371;56.992;23.912;2023-09-19T07:25:50;20.08;;;14.48;;
40152;SDS011;26371;56.992;23.912;2023-09-19T07:28:19;21.45;;;14.35;;
40152;SDS011;26371;56.992;23.912;2023-09-19T07:30:55;17.35;;;13.73;;
40152;SDS011;26371;56.992;23.912;2023-09-19T07:33:43;18.50;;;14.13;;
40152;SDS011;26371;56.992;23.912;2023-09-19T07:36:17;19.27;;;13.90;;
40152;SDS011;26371;56.992;23.912;2023-09-19T07:41:17;19.52;;;14.25;;
40152;SDS011;26371;56.992;23.912;2023-09-19T07:43:46;21.48;;;15.07;;
40152;SDS011;26371;56.992;23.912;2023-09-19T07:46:14;17.45;;;13.55;;
40152;SDS011;26371;56.992;23.912;2023-09-19T07:48:43;16.17;;;13.23;;
40152;SDS011;26371;56.992;23.912;2023-09-19T07:51:15;19.27;;;13.73;;
40152;SDS011;26371;56.992;23.912;2023-09-19T07:53:48;20.15;;;14.38;;
40152;SDS011;26371;56.992;23.912;2023-09-19T07:56:16;17.38;;;12.82;;
40152;SDS011;26371;56.992;23.912;2023-09-19T07:58:46;18.58;;;12.68;;
40152;SDS011;26371;56.992;23.912;2023-09-19T08:01:15;15.50;;;12.82;;
40152;SDS011;26371;56.992;23.912;2023-09-19T08:03:44;16.65;;;12.80;;
40152;SDS011;26371;56.992;23.912;2023-09-19T08:06:12;17.73;;;12.95;;
40152;SDS011;26371;56.992;23.912;2023-09-19T08:11:11;20.30;;;12.55;;
40152;SDS011;26371;56.992;23.912;2023-09-19T08:13:41;16.08;;;12.55;;
40152;SDS011;26371;56.992;23.912;2023-09-19T08:16:12;15.45;;;12.10;;
40152;SDS011;26371;56.992;23.912;2023-09-19T08:18:42;16.67;;;12.50;;
40152;SDS011;26371;56.992;23.912;2023-09-19T08:21:11;15.30;;;11.95;;
40152;SDS011;26371;56.992;23.912;2023-09-19T08:23:43;16.73;;;12.20;;
40152;SDS011;26371;56.992;23.912;2023-09-19T08:28:42;15.43;;;11.70;;
40152;SDS011;26371;56.992;23.912;2023-09-19T08:31:10;15.82;;;11.95;;
40152;SDS011;26371;56.992;23.912;2023-09-19T08:33:39;18.65;;;12.52;;
40152;SDS011;26371;56.992;23.912;2023-09-19T08:36:08;16.67;;;11.05;;
40152;SDS011;26371;56.992;23.912;2023-09-19T08:38:38;14.13;;;11.88;;
40152;SDS011;26371;56.992;23.912;2023-09-19T08:41:07;16.55;;;11.65;;
40152;SDS011;26371;56.992;23.912;2023-09-19T08:43:37;15.20;;;11.52;;
40152;SDS011;26371;56.992;23.912;2023-09-19T08:46:09;14.50;;;10.88;;
40152;SDS011;26371;56.992;23.912;2023-09-19T08:48:42;17.50;;;11.30;;
40152;SDS011;26371;56.992;23.912;2023-09-19T08:51:17;14.20;;;11.20;;
40152;SDS011;26371;56.992;23.912;2023-09-19T08:53:50;14.35;;;10.23;;
40152;SDS011;26371;56.992;23.912;2023-09-19T08:56:22;15.50;;;12.02;;
40152;SDS011;26371;56.992;23.912;2023-09-19T08:58:57;15.73;;;10.65;;
40152;SDS011;26371;56.992;23.912;2023-09-19T09:01:28;17.55;;;11.32;;
40152;SDS011;26371;56.992;23.912;2023-09-19T09:03:59;16.60;;;11.43;;
40152;SDS011;26371;56.992;23.912;2023-09-19T09:06:29;16.70;;;10.73;;
40152;SDS011;26371;56.992;23.912;2023-09-19T09:09:00;13.43;;;10.50;;
40152;SDS011;26371;56.992;23.912;2023-09-19T09:11:29;15.32;;;10.55;;
40152;SDS011;26371;56.992;23.912;2023-09-19T09:14:02;18.45;;;11.20;;
40152;SDS011;26371;56.992;23.912;2023-09-19T09:16:31;16.45;;;10.88;;
40152;SDS011;26371;56.992;23.912;2023-09-19T09:21:28;16.73;;;10.50;;
40152;SDS011;26371;56.992;23.912;2023-09-19T09:26:54;13.95;;;10.15;;
40152;SDS011;26371;56.992;23.912;2023-09-19T09:32:17;15.55;;;10.63;;
40152;SDS011;26371;56.992;23.912;2023-09-19T09:34:51;13.80;;;10.85;;
40152;SDS011;26371;56.992;23.912;2023-09-19T09:37:25;14.80;;;10.93;;
40152;SDS011;26371;56.992;23.912;2023-09-19T09:39:58;14.48;;;10.65;;
40152;SDS011;26371;56.992;23.912;2023-09-19T09:45:20;14.68;;;10.25;;
40152;SDS011;26371;56.992;23.912;2023-09-19T09:47:55;17.02;;;10.05;;
40152;SDS011;26371;56.992;23.912;2023-09-19T09:50:24;17.45;;;10.32;;
40152;SDS011;26371;56.992;23.912;2023-09-19T09:53:06;15.00;;;10.57;;
40152;SDS011;26371;56.992;23.912;2023-09-19T09:59:13;12.50;;;9.38;;
40152;SDS011;26371;56.992;23.912;2023-09-19T10:01:48;14.75;;;9.73;;
40152;SDS011;26371;56.992;23.912;2023-09-19T10:04:27;13.98;;;10.00;;
40152;SDS011;26371;56.992;23.912;2023-09-19T10:06:58;13.13;;;8.95;;
40152;SDS011;26371;56.992;23.912;2023-09-19T10:09:44;13.25;;;9.57;;
40152;SDS011;26371;56.992;23.912;2023-09-19T10:12:14;16.35;;;10.02;;
40152;SDS011;26371;56.992;23.912;2023-09-19T10:14:44;14.77;;;10.25;;
40152;SDS011;26371;56.992;23.912;2023-09-19T10:17:15;15.52;;;10.00;;
40152;SDS011;26371;56.992;23.912;2023-09-19T10:19:51;16.55;;;10.13;;
40152;SDS011;26371;56.992;23.912;2023-09-19T10:22:24;15.23;;;9.68;;
40152;SDS011;26371;56.992;23.912;2023-09-19T10:24:57;12.95;;;9.80;;
40152;SDS011;26371;56.992;23.912;2023-09-19T10:27:30;11.50;;;10.20;;
40152;SDS011;26371;56.992;23.912;2023-09-19T10:30:05;12.93;;;9.77;;
40152;SDS011;26371;56.992;23.912;2023-09-19T10:32:37;13.88;;;9.77;;
40152;SDS011;26371;56.992;23.912;2023-09-19T10:35:08;16.23;;;9.32;;
40152;SDS011;26371;56.992;23.912;2023-09-19T10:37:40;16.67;;;9.23;;
40152;SDS011;26371;56.992;23.912;2023-09-19T10:40:12;12.40;;;9.77;;
40152;SDS011;26371;56.992;23.912;2023-09-19T10:42:42;13.85;;;9.40;;
40152;SDS011;26371;56.992;23.912;2023-09-19T10:45:13;16.67;;;9.43;;
40152;SDS011;26371;56.992;23.912;2023-09-19T10:47:48;12.07;;;8.80;;
40152;SDS011;26371;56.992;23.912;2023-09-19T10:50:19;15.40;;;9.55;;
40152;SDS011;26371;56.992;23.912;2023-09-19T10:52:49;14.52;;;9.27;;
40152;SDS011;26371;56.992;23.912;2023-09-19T10:55:25;13.15;;;8.98;;
40152;SDS011;26371;56.992;23.912;2023-09-19T10:57:57;13.18;;;8.82;;
40152;SDS011;26371;56.992;23.912;2023-09-19T11:00:51;17.00;;;9.55;;
40152;SDS011;26371;56.992;23.912;2023-09-19T11:03:22;15.60;;;9.52;;
40152;SDS011;26371;56.992;23.912;2023-09-19T11:06:08;13.38;;;9.45;;
40152;SDS011;26371;56.992;23.912;2023-09-19T11:08:50;16.92;;;9.80;;
40152;SDS011;26371;56.992;23.912;2023-09-19T11:14:28;15.57;;;9.48;;
40152;SDS011;26371;56.992;23.912;2023-09-19T11:20:22;13.60;;;9.60;;
40152;SDS011;26371;56.992;23.912;2023-09-19T11:23:19;13.77;;;10.00;;
40152;SDS011;26371;56.992;23.912;2023-09-19T11:25:55;19.25;;;9.73;;
40152;SDS011;26371;56.992;23.912;2023-09-19T11:28:32;14.68;;;9.68;;
40152;SDS011;26371;56.992;23.912;2023-09-19T11:40:47;14.60;;;10.32;;
40152;SDS011;26371;56.992;23.912;2023-09-19T11:43:38;14.32;;;10.45;;
40152;SDS011;26371;56.992;23.912;2023-09-19T11:46:07;16.10;;;10.90;;
40152;SDS011;26371;56.992;23.912;2023-09-19T11:48:38;14.80;;;9.63;;
40152;SDS011;26371;56.992;23.912;2023-09-19T11:51:14;16.05;;;9.32;;
40152;SDS011;26371;56.992;23.912;2023-09-19T11:53:50;16.25;;;10.43;;
40152;SDS011;26371;56.992;23.912;2023-09-19T11:56:21;13.95;;;9.63;;
40152;SDS011;26371;56.992;23.912;2023-09-19T11:58:53;17.33;;;10.50;;
40152;SDS011;26371;56.992;23.912;2023-09-19T12:01:29;14.02;;;10.10;;
40152;SDS011;26371;56.992;23.912;2023-09-19T12:04:00;16.23;;;10.30;;
40152;SDS011;26371;56.992;23.912;2023-09-19T12:06:32;16.83;;;11.20;;
40152;SDS011;26371;56.992;23.912;2023-09-19T12:09:05;15.20;;;10.02;;
40152;SDS011;26371;56.992;23.912;2023-09-19T12:11:45;16.33;;;11.10;;
40152;SDS011;26371;56.992;23.912;2023-09-19T12:14:21;12.77;;;10.75;;
40152;SDS011;26371;56.992;23.912;2023-09-19T12:16:53;19.48;;;10.40;;
40152;SDS011;26371;56.992;23.912;2023-09-19T12:19:23;17.00;;;11.77;;
40152;SDS011;26371;56.992;23.912;2023-09-19T12:21:55;20.10;;;11.32;;
40152;SDS011;26371;56.992;23.912;2023-09-19T12:24:26;16.52;;;12.23;;
40152;SDS011;26371;56.992;23.912;2023-09-19T12:27:02;17.85;;;10.82;;
40152;SDS011;26371;56.992;23.912;2023-09-19T12:29:41;15.55;;;11.13;;
40152;SDS011;26371;56.992;23.912;2023-09-19T12:32:11;15.55;;;11.27;;
40152;SDS011;26371;56.992;23.912;2023-09-19T12:34:41;14.88;;;11.90;;
40152;SDS011;26371;56.992;23.912;2023-09-19T12:37:11;19.55;;;12.80;;
40152;SDS011;26371;56.992;23.912;2023-09-19T12:39:43;18.40;;;13.45;;
40152;SDS011;26371;56.992;23.912;2023-09-19T12:42:17;17.25;;;13.20;;
40152;SDS011;26371;56.992;23.912;2023-09-19T12:44:47;18.23;;;13.10;;
40152;SDS011;26371;56.992;23.912;2023-09-19T12:47:18;17.08;;;13.48;;
40152;SDS011;26371;56.992;23.912;2023-09-19T12:50:05;18.90;;;13.82;;
40152;SDS011;26371;56.992;23.912;2023-09-19T12:52:41;18.25;;;14.57;;
40152;SDS011;26371;56.992;23.912;2023-09-19T12:55:19;18.08;;;14.27;;
40152;SDS011;26371;56.992;23.912;2023-09-19T12:58:02;20.90;;;14.30;;
40152;SDS011;26371;56.992;23.912;2023-09-19T13:00:37;17.48;;;14.95;;
40152;SDS011;26371;56.992;23.912;2023-09-19T13:03:17;20.77;;;15.40;;
40152;SDS011;26371;56.992;23.912;2023-09-19T13:05:50;23.20;;;17.05;;
40152;SDS011;26371;56.992;23.912;2023-09-19T13:08:31;21.50;;;18.60;;
40152;SDS011;26371;56.992;23.912;2023-09-19T13:11:07;20.42;;;17.77;;
40152;SDS011;26371;56.992;23.912;2023-09-19T13:13:41;25.80;;;21.15;;
40152;SDS011;26371;56.992;23.912;2023-09-19T13:16:15;28.33;;;23.73;;
40152;SDS011;26371;56.992;23.912;2023-09-19T13:18:49;31.50;;;23.45;;
40152;SDS011;26371;56.992;23.912;2023-09-19T13:21:29;30.92;;;24.63;;
40152;SDS011;26371;56.992;23.912;2023-09-19T13:24:20;28.35;;;22.75;;
40152;SDS011;26371;56.992;23.912;2023-09-19T13:26:52;31.08;;;24.90;;
40152;SDS011;26371;56.992;23.912;2023-09-19T13:29:23;37.90;;;29.13;;
40152;SDS011;26371;56.992;23.912;2023-09-19T13:31:52;33.88;;;27.52;;
40152;SDS011;26371;56.992;23.912;2023-09-19T13:34:20;38.63;;;30.70;;
40152;SDS011;26371;56.992;23.912;2023-09-19T13:36:49;30.33;;;26.00;;
40152;SDS011;26371;56.992;23.912;2023-09-19T13:39:18;36.28;;;28.90;;
40152;SDS011;26371;56.992;23.912;2023-09-19T13:41:47;31.85;;;27.50;;
40152;SDS011;26371;56.992;23.912;2023-09-19T13:44:16;34.75;;;27.83;;
40152;SDS011;26371;56.992;23.912;2023-09-19T13:46:46;34.33;;;28.27;;
40152;SDS011;26371;56.992;23.912;2023-09-19T13:49:14;33.35;;;28.60;;
40152;SDS011;26371;56.992;23.912;2023-09-19T13:51:48;31.35;;;27.55;;
40152;SDS011;26371;56.992;23.912;2023-09-19T13:54:17;35.83;;;29.33;;
40152;SDS011;26371;56.992;23.912;2023-09-19T13:56:47;35.13;;;28.77;;
40152;SDS011;26371;56.992;23.912;2023-09-19T13:59:16;32.70;;;27.48;;
40152;SDS011;26371;56.992;23.912;2023-09-19T14:01:45;34.20;;;27.35;;
40152;SDS011;26371;56.992;23.912;2023-09-19T14:04:14;34.83;;;29.02;;
40152;SDS011;26371;56.992;23.912;2023-09-19T14:06:43;38.08;;;29.90;;
40152;SDS011;26371;56.992;23.912;2023-09-19T14:09:12;34.40;;;30.27;;
40152;SDS011;26371;56.992;23.912;2023-09-19T14:11:46;37.00;;;29.13;;
40152;SDS011;26371;56.992;23.912;2023-09-19T14:14:16;35.63;;;28.80;;
40152;SDS011;26371;56.992;23.912;2023-09-19T14:16:46;32.30;;;26.27;;
40152;SDS011;26371;56.992;23.912;2023-09-19T14:19:15;33.20;;;28.25;;
40152;SDS011;26371;56.992;23.912;2023-09-19T14:21:44;30.88;;;26.73;;
40152;SDS011;26371;56.992;23.912;2023-09-19T14:24:16;33.22;;;27.10;;
40152;SDS011;26371;56.992;23.912;2023-09-19T14:26:45;29.23;;;25.05;;
40152;SDS011;26371;56.992;23.912;2023-09-19T14:31:42;29.33;;;23.40;;
40152;SDS011;26371;56.992;23.912;2023-09-19T14:34:12;28.13;;;21.33;;
40152;SDS011;26371;56.992;23.912;2023-09-19T14:36:41;27.58;;;22.63;;
40152;SDS011;26371;56.992;23.912;2023-09-19T14:39:10;28.10;;;22.90;;
40152;SDS011;26371;56.992;23.912;2023-09-19T14:41:38;27.30;;;22.27;;
40152;SDS011;26371;56.992;23.912;2023-09-19T14:44:07;28.20;;;22.08;;
40152;SDS011;26371;56.992;23.912;2023-09-19T14:46:37;29.85;;;23.13;;
40152;SDS011;26371;56.992;23.912;2023-09-19T14:49:06;23.92;;;19.75;;
40152;SDS011;26371;56.992;23.912;2023-09-19T14:51:38;25.23;;;21.52;;
40152;SDS011;26371;56.992;23.912;2023-09-19T14:54:07;29.40;;;22.58;;
40152;SDS011;26371;56.992;23.912;2023-09-19T14:56:36;27.85;;;22.48;;
40152;SDS011;26371;56.992;23.912;2023-09-19T14:59:04;27.38;;;22.30;;
40152;SDS011;26371;56.992;23.912;2023-09-19T15:01:33;24.63;;;21.75;;
40152;SDS011;26371;56.992;23.912;2023-09-19T15:04:02;25.15;;;21.27;;
40152;SDS011;26371;56.992;23.912;2023-09-19T15:06:31;23.38;;;20.65;;
40152;SDS011;26371;56.992;23.912;2023-09-19T15:09:02;26.42;;;21.88;;
40152;SDS011;26371;56.992;23.912;2023-09-19T15:11:31;27.48;;;21.23;;
40152;SDS011;26371;56.992;23.912;2023-09-19T15:14:00;25.15;;;19.02;;
40152;SDS011;26371;56.992;23.912;2023-09-19T15:16:29;22.58;;;19.88;;
40152;SDS011;26371;56.992;23.912;2023-09-19T15:18:59;26.67;;;19.70;;
40152;SDS011;26371;56.992;23.912;2023-09-19T15:21:27;23.33;;;18.75;;
40152;SDS011;26371;56.992;23.912;2023-09-19T15:23:56;22.80;;;19.45;;
40152;SDS011;26371;56.992;23.912;2023-09-19T15:26:26;20.60;;;17.52;;
40152;SDS011;26371;56.992;23.912;2023-09-19T15:28:55;22.17;;;18.45;;
40152;SDS011;26371;56.992;23.912;2023-09-19T15:33:52;24.17;;;18.90;;
40152;SDS011;26371;56.992;23.912;2023-09-19T15:36:21;22.70;;;18.17;;
40152;SDS011;26371;56.992;23.912;2023-09-19T15:38:59;22.35;;;19.65;;
40152;SDS011;26371;56.992;23.912;2023-09-19T15:41:32;23.80;;;18.05;;
40152;SDS011;26371;56.992;23.912;2023-09-19T15:44:01;25.10;;;19.65;;
40152;SDS011;26371;56.992;23.912;2023-09-19T15:46:31;23.75;;;19.13;;
40152;SDS011;26371;56.992;23.912;2023-09-19T15:49:01;24.08;;;19.45;;
40152;SDS011;26371;56.992;23.912;2023-09-19T15:51:31;24.42;;;17.92;;
40152;SDS011;26371;56.992;23.912;2023-09-19T15:53:59;23.38;;;17.58;;
40152;SDS011;26371;56.992;23.912;2023-09-19T15:56:30;22.83;;;18.02;;
40152;SDS011;26371;56.992;23.912;2023-09-19T15:59:02;23.63;;;17.80;;
40152;SDS011;26371;56.992;23.912;2023-09-19T16:01:32;22.83;;;18.35;;
40152;SDS011;26371;56.992;23.912;2023-09-19T16:04:00;25.13;;;17.73;;
40152;SDS011;26371;56.992;23.912;2023-09-19T16:06:30;21.30;;;16.73;;
40152;SDS011;26371;56.992;23.912;2023-09-19T16:08:59;22.73;;;17.35;;
40152;SDS011;26371;56.992;23.912;2023-09-19T16:11:31;19.65;;;14.85;;
40152;SDS011;26371;56.992;23.912;2023-09-19T16:14:03;22.35;;;14.70;;
40152;SDS011;26371;56.992;23.912;2023-09-19T16:16:33;20.05;;;14.35;;
40152;SDS011;26371;56.992;23.912;2023-09-19T16:19:04;19.05;;;13.35;;
40152;SDS011;26371;56.992;23.912;2023-09-19T16:21:37;17.13;;;14.07;;
40152;SDS011;26371;56.992;23.912;2023-09-19T16:24:07;15.50;;;12.63;;
40152;SDS011;26371;56.992;23.912;2023-09-19T16:26:37;19.33;;;13.32;;
40152;SDS011;26371;56.992;23.912;2023-09-19T16:29:07;17.67;;;12.63;;
40152;SDS011;26371;56.992;23.912;2023-09-19T16:31:36;19.83;;;12.75;;
40152;SDS011;26371;56.992;23.912;2023-09-19T16:34:05;19.55;;;12.98;;
40152;SDS011;26371;56.992;23.912;2023-09-19T16:36:35;14.77;;;10.35;;
40152;SDS011;26371;56.992;23.912;2023-09-19T16:41:34;19.75;;;11.93;;
40152;SDS011;26371;56.992;23.912;2023-09-19T16:44:03;17.83;;;11.50;;
40152;SDS011;26371;56.992;23.912;2023-09-19T16:46:36;16.23;;;11.13;;
40152;SDS011;26371;56.992;23.912;2023-09-19T16:49:05;15.10;;;9.25;;
40152;SDS011;26371;56.992;23.912;2023-09-19T16:51:34;12.75;;;7.78;;
40152;SDS011;26371;56.992;23.912;2023-09-19T16:54:04;10.95;;;6.68;;
40152;SDS011;26371;56.992;23.912;2023-09-19T16:56:36;13.60;;;6.90;;
40152;SDS011;26371;56.992;23.912;2023-09-19T16:59:06;15.57;;;7.07;;
40152;SDS011;26371;56.992;23.912;2023-09-19T17:01:39;11.77;;;6.00;;
40152;SDS011;26371;56.992;23.912;2023-09-19T17:04:13;13.10;;;6.28;;
40152;SDS011;26371;56.992;23.912;2023-09-19T17:06:42;8.88;;;4.55;;
40152;SDS011;26371;56.992;23.912;2023-09-19T17:09:15;10.27;;;4.70;;
40152;SDS011;26371;56.992;23.912;2023-09-19T17:11:45;11.38;;;4.63;;
40152;SDS011;26371;56.992;23.912;2023-09-19T17:14:15;10.13;;;4.40;;
40152;SDS011;26371;56.992;23.912;2023-09-19T17:16:46;10.02;;;5.00;;
40152;SDS011;26371;56.992;23.912;2023-09-19T17:19:16;10.88;;;5.30;;
40152;SDS011;26371;56.992;23.912;2023-09-19T17:21:44;10.02;;;4.60;;
40152;SDS011;26371;56.992;23.912;2023-09-19T17:24:13;8.50;;;4.60;;
40152;SDS011;26371;56.992;23.912;2023-09-19T17:26:42;12.48;;;4.10;;
40152;SDS011;26371;56.992;23.912;2023-09-19T17:29:12;12.65;;;4.50;;
40152;SDS011;26371;56.992;23.912;2023-09-19T17:31:41;10.25;;;4.38;;
40152;SDS011;26371;56.992;23.912;2023-09-19T17:34:12;9.18;;;4.32;;
40152;SDS011;26371;56.992;23.912;2023-09-19T17:36:42;9.05;;;3.40;;
40152;SDS011;26371;56.992;23.912;2023-09-19T17:39:12;7.85;;;3.45;;
40152;SDS011;26371;56.992;23.912;2023-09-19T17:41:42;7.70;;;2.95;;
40152;SDS011;26371;56.992;23.912;2023-09-19T17:44:11;9.70;;;3.00;;
40152;SDS011;26371;56.992;23.912;2023-09-19T17:46:39;9.75;;;2.88;;
40152;SDS011;26371;56.992;23.912;2023-09-19T17:49:08;9.98;;;2.95;;
40152;SDS011;26371;56.992;23.912;2023-09-19T17:51:40;7.53;;;2.90;;
40152;SDS011;26371;56.992;23.912;2023-09-19T17:54:08;9.18;;;2.70;;
40152;SDS011;26371;56.992;23.912;2023-09-19T17:59:06;8.48;;;2.95;;
40152;SDS011;26371;56.992;23.912;2023-09-19T18:01:35;9.13;;;3.10;;
40152;SDS011;26371;56.992;23.912;2023-09-19T18:04:04;8.45;;;2.72;;
40152;SDS011;26371;56.992;23.912;2023-09-19T18:06:32;7.88;;;2.88;;
40152;SDS011;26371;56.992;23.912;2023-09-19T18:09:05;9.02;;;2.55;;
40152;SDS011;26371;56.992;23.912;2023-09-19T18:11:34;7.43;;;2.70;;
40152;SDS011;26371;56.992;23.912;2023-09-19T18:14:03;10.48;;;3.65;;
40152;SDS011;26371;56.992;23.912;2023-09-19T18:16:31;9.25;;;2.60;;
40152;SDS011;26371;56.992;23.912;2023-09-19T18:19:01;9.68;;;2.70;;
40152;SDS011;26371;56.992;23.912;2023-09-19T18:21:30;6.82;;;2.75;;
40152;SDS011;26371;56.992;23.912;2023-09-19T18:24:07;10.13;;;2.45;;
40152;SDS011;26371;56.992;23.912;2023-09-19T18:26:49;12.45;;;3.15;;
40152;SDS011;26371;56.992;23.912;2023-09-19T18:29:17;12.27;;;3.45;;
40152;SDS011;26371;56.992;23.912;2023-09-19T18:31:46;12.00;;;2.70;;
40152;SDS011;26371;56.992;23.912;2023-09-19T18:36:44;11.60;;;3.00;;
40152;SDS011;26371;56.992;23.912;2023-09-19T18:39:14;8.93;;;2.88;;
40152;SDS011;26371;56.992;23.912;2023-09-19T18:41:46;10.70;;;2.85;;
40152;SDS011;26371;56.992;23.912;2023-09-19T18:44:18;9.80;;;3.78;;
40152;SDS011;26371;56.992;23.912;2023-09-19T18:46:47;7.32;;;2.70;;
40152;SDS011;26371;56.992;23.912;2023-09-19T18:49:15;8.88;;;2.80;;
40152;SDS011;26371;56.992;23.912;2023-09-19T18:51:44;11.13;;;3.00;;
40152;SDS011;26371;56.992;23.912;2023-09-19T18:54:15;9.95;;;2.97;;
40152;SDS011;26371;56.992;23.912;2023-09-19T18:56:44;7.65;;;2.65;;
40152;SDS011;26371;56.992;23.912;2023-09-19T18:59:13;9.77;;;3.72;;
40152;SDS011;26371;56.992;23.912;2023-09-19T19:01:42;8.82;;;2.88;;
40152;SDS011;26371;56.992;23.912;2023-09-19T19:04:12;7.53;;;2.65;;
40152;SDS011;26371;56.992;23.912;2023-09-19T19:06:44;8.50;;;2.85;;
40152;SDS011;26371;56.992;23.912;2023-09-19T19:09:12;10.07;;;3.25;;
40152;SDS011;26371;56.992;23.912;2023-09-19T19:11:43;8.52;;;2.88;;
40152;SDS011;26371;56.992;23.912;2023-09-19T19:14:12;10.20;;;2.97;;
40152;SDS011;26371;56.992;23.912;2023-09-19T19:16:40;11.70;;;3.17;;
40152;SDS011;26371;56.992;23.912;2023-09-19T19:19:10;11.85;;;2.78;;
40152;SDS011;26371;56.992;23.912;2023-09-19T19:21:40;6.72;;;2.83;;
40152;SDS011;26371;56.992;23.912;2023-09-19T19:24:09;7.30;;;2.40;;
40152;SDS011;26371;56.992;23.912;2023-09-19T19:26:37;7.38;;;2.47;;
40152;SDS011;26371;56.992;23.912;2023-09-19T19:29:07;12.75;;;2.47;;
40152;SDS011;26371;56.992;23.912;2023-09-19T19:31:36;8.35;;;2.78;;
40152;SDS011;26371;56.992;23.912;2023-09-19T19:34:05;9.75;;;2.70;;
40152;SDS011;26371;56.992;23.912;2023-09-19T19:36:35;8.23;;;3.05;;
40152;SDS011;26371;56.992;23.912;2023-09-19T19:39:03;8.25;;;2.63;;
40152;SDS011;26371;56.992;23.912;2023-09-19T19:44:07;11.23;;;2.80;;
40152;SDS011;26371;56.992;23.912;2023-09-19T19:46:35;10.07;;;3.28;;
40152;SDS011;26371;56.992;23.912;2023-09-19T19:49:04;8.68;;;2.45;;
40152;SDS011;26371;56.992;23.912;2023-09-19T19:51:34;8.23;;;2.80;;
40152;SDS011;26371;56.992;23.912;2023-09-19T19:54:05;9.52;;;2.65;;
40152;SDS011;26371;56.992;23.912;2023-09-19T19:56:33;6.72;;;2.70;;
40152;SDS011;26371;56.992;23.912;2023-09-19T19:59:02;12.20;;;3.25;;
40152;SDS011;26371;56.992;23.912;2023-09-19T20:01:33;10.10;;;3.05;;
40152;SDS011;26371;56.992;23.912;2023-09-19T20:04:01;8.25;;;3.00;;
40152;SDS011;26371;56.992;23.912;2023-09-19T20:06:31;7.55;;;3.00;;
40152;SDS011;26371;56.992;23.912;2023-09-19T20:08:59;11.20;;;2.90;;
40152;SDS011;26371;56.992;23.912;2023-09-19T20:11:28;10.20;;;2.78;;
40152;SDS011;26371;56.992;23.912;2023-09-19T20:13:57;7.72;;;2.83;;
40152;SDS011;26371;56.992;23.912;2023-09-19T20:16:29;9.60;;;3.20;;
40152;SDS011;26371;56.992;23.912;2023-09-19T20:19:01;8.43;;;3.22;;
40152;SDS011;26371;56.992;23.912;2023-09-19T20:21:31;9.25;;;3.30;;
40152;SDS011;26371;56.992;23.912;2023-09-19T20:24:01;9.57;;;3.38;;
40152;SDS011;26371;56.992;23.912;2023-09-19T20:26:33;12.63;;;3.25;;
40152;SDS011;26371;56.992;23.912;2023-09-19T20:29:04;9.80;;;2.85;;
40152;SDS011;26371;56.992;23.912;2023-09-19T20:31:35;8.02;;;3.28;;
40152;SDS011;26371;56.992;23.912;2023-09-19T20:34:06;7.00;;;2.83;;
40152;SDS011;26371;56.992;23.912;2023-09-19T20:36:36;11.02;;;3.05;;
40152;SDS011;26371;56.992;23.912;2023-09-19T20:39:07;11.38;;;3.40;;
40152;SDS011;26371;56.992;23.912;2023-09-19T20:41:37;10.70;;;3.25;;
40152;SDS011;26371;56.992;23.912;2023-09-19T20:44:07;8.68;;;3.20;;
40152;SDS011;26371;56.992;23.912;2023-09-19T20:46:37;11.95;;;3.25;;
40152;SDS011;26371;56.992;23.912;2023-09-19T20:51:36;11.13;;;3.10;;
40152;SDS011;26371;56.992;23.912;2023-09-19T20:54:07;9.07;;;2.97;;
40152;SDS011;26371;56.992;23.912;2023-09-19T20:56:37;8.50;;;3.15;;
40152;SDS011;26371;56.992;23.912;2023-09-19T20:59:06;10.95;;;2.72;;
40152;SDS011;26371;56.992;23.912;2023-09-19T21:01:35;12.27;;;3.90;;
40152;SDS011;26371;56.992;23.912;2023-09-19T21:04:04;12.30;;;3.50;;
40152;SDS011;26371;56.992;23.912;2023-09-19T21:06:34;11.27;;;3.15;;
40152;SDS011;26371;56.992;23.912;2023-09-19T21:09:03;12.80;;;2.85;;
40152;SDS011;26371;56.992;23.912;2023-09-19T21:11:31;14.75;;;4.00;;
40152;SDS011;26371;56.992;23.912;2023-09-19T21:14:00;9.45;;;3.08;;
40152;SDS011;26371;56.992;23.912;2023-09-19T21:16:30;9.70;;;2.88;;
40152;SDS011;26371;56.992;23.912;2023-09-19T21:18:59;11.10;;;2.85;;
40152;SDS011;26371;56.992;23.912;2023-09-19T21:21:34;9.43;;;3.40;;
40152;SDS011;26371;56.992;23.912;2023-09-19T21:24:04;13.73;;;3.00;;
40152;SDS011;26371;56.992;23.912;2023-09-19T21:26:36;13.43;;;3.55;;
40152;SDS011;26371;56.992;23.912;2023-09-19T21:29:05;14.02;;;3.10;;
40152;SDS011;26371;56.992;23.912;2023-09-19T21:31:34;11.10;;;3.00;;
40152;SDS011;26371;56.992;23.912;2023-09-19T21:34:03;12.98;;;3.05;;
40152;SDS011;26371;56.992;23.912;2023-09-19T21:36:36;13.60;;;2.85;;
40152;SDS011;26371;56.992;23.912;2023-09-19T21:39:11;14.73;;;3.30;;
40152;SDS011;26371;56.992;23.912;2023-09-19T21:41:42;11.52;;;2.90;;
40152;SDS011;26371;56.992;23.912;2023-09-19T21:44:11;11.10;;;3.33;;
40152;SDS011;26371;56.992;23.912;2023-09-19T21:46:39;14.52;;;3.75;;
40152;SDS011;26371;56.992;23.912;2023-09-19T21:49:08;13.85;;;3.47;;
40152;SDS011;26371;56.992;23.912;2023-09-19T21:51:38;12.95;;;3.00;;
40152;SDS011;26371;56.992;23.912;2023-09-19T21:54:07;13.65;;;3.90;;
40152;SDS011;26371;56.992;23.912;2023-09-19T21:56:35;11.90;;;2.97;;
40152;SDS011;26371;56.992;23.912;2023-09-19T21:59:04;9.13;;;2.95;;